Time;durP1;ratioP1;P1;durP2;ratioP2;P2;SDS_P1;SDS_P2;PMS_P1;PMS_P2;Temp;Humidity;BMP_temperature;BMP_pressure;BME280_temperature;BME280_humidity;BME280_pressure;Samples;Min_cycle;Max_cycle;Signal;HPM_P1;HPM_P2
2021/03/11 00:00:40;;;;;;;29.00;16.77;;;;;;;1.42;83.37;98357.84;5034163;28;20088;-72
2021/03/11 00:03:06;;;;;;;28.90;17.17;;;;;;;1.35;83.76;98358.97;5034125;28;20049;-73
2021/03/11 00:05:32;;;;;;;27.48;17.23;;;;;;;1.49;83.30;98366.69;5033819;28;20029;-73
2021/03/11 00:07:58;;;;;;;33.58;19.10;;;;;;;1.26;83.52;98371.94;5033991;28;20529;-72
2021/03/11 00:10:24;;;;;;;30.92;19.25;;;;;;;1.23;83.85;98377.78;5033817;28;20124;-73
2021/03/11 00:12:49;;;;;;;;;;;;;;;1.34;83.73;98378.91;5034454;28;20025;-73
2021/03/11 00:15:17;;;;;;;26.08;15.95;;;;;;;1.35;83.53;98375.16;5033723;28;19971;-73
2021/03/11 00:17:43;;;;;;;34.33;18.88;;;;;;;1.27;83.65;98370.91;5033650;28;20029;-73
2021/03/11 00:20:18;;;;;;;28.98;18.13;;;;;;;1.30;83.73;98370.44;5033679;28;20390;-73
2021/03/11 00:22:43;;;;;;;28.60;16.17;;;;;;;1.27;84.03;98362.00;5032244;28;20477;-73
2021/03/11 00:25:14;;;;;;;33.47;17.08;;;;;;;1.39;83.96;98368.25;5033661;28;20040;-73
2021/03/11 00:27:40;;;;;;;28.30;16.17;;;;;;;1.24;84.33;98367.84;5033603;28;20061;-73
2021/03/11 00:30:09;;;;;;;29.15;16.33;;;;;;;1.45;84.03;98359.28;5033351;28;20026;-73
2021/03/11 00:32:34;;;;;;;28.45;16.35;;;;;;;1.35;84.19;98354.41;5033788;28;20025;-72
2021/03/11 00:35:00;;;;;;;35.25;19.10;;;;;;;1.32;84.12;98343.25;5033355;28;20408;-73
2021/03/11 00:37:26;;;;;;;26.08;18.15;;;;;;;1.35;84.03;98353.59;5033167;28;20111;-72
2021/03/11 00:39:51;;;;;;;35.70;19.10;;;;;;;1.15;84.80;98350.34;5033504;28;20022;-72
2021/03/11 00:42:17;;;;;;;29.35;18.00;;;;;;;1.28;84.58;98353.69;5033210;28;20087;-72
2021/03/11 00:44:42;;;;;;;33.45;16.95;;;;;;;1.32;84.16;98348.66;5033189;28;20482;-73
2021/03/11 00:47:08;;;;;;;;;;;;;;;1.30;84.38;98348.91;5033651;28;20029;-72
2021/03/11 00:49:34;;;;;;;29.55;14.80;;;;;;;1.39;83.55;98339.44;5033256;28;19917;-72
2021/03/11 00:52:00;;;;;;;29.77;17.90;;;;;;;1.39;83.64;98338.63;5031900;28;20363;-72
2021/03/11 00:54:27;;;;;;;32.33;18.75;;;;;;;1.31;84.00;98341.63;5032999;28;20033;-72
2021/03/11 00:56:52;;;;;;;32.40;18.15;;;;;;;1.20;84.48;98337.81;5033222;28;20032;-72
2021/03/11 00:59:17;;;;;;;40.40;18.23;;;;;;;1.13;85.13;98330.91;5033229;28;20030;-72
2021/03/11 01:01:43;;;;;;;38.35;20.13;;;;;;;1.06;85.55;98334.50;5040157;28;20052;-73
2021/03/11 01:04:08;;;;;;;;;;;;;;;1.01;85.87;98330.81;5043299;28;20021;-72
2021/03/11 01:06:33;;;;;;;31.73;18.08;;;;;;;1.20;84.97;98329.75;5032735;28;19913;-71
2021/03/11 01:08:59;;;;;;;;;;;;;;;1.21;84.98;98322.50;5033032;28;20485;-72
2021/03/11 01:11:24;;;;;;;31.15;16.23;;;;;;;1.31;84.59;98328.16;5031506;28;20011;-73
2021/03/11 01:13:50;;;;;;;;;;;;;;;1.30;85.04;98323.81;5046781;28;20055;-73
2021/03/11 01:16:15;;;;;;;33.97;18.40;;;;;;;1.25;85.14;98321.81;5052386;28;19912;-72
2021/03/11 01:18:40;;;;;;;;;;;;;;;1.10;85.43;98323.25;5052912;28;20075;-72
2021/03/11 01:21:06;;;;;;;31.85;17.08;;;;;;;1.27;84.78;98321.59;5051535;28;19913;-74
2021/03/11 01:23:31;;;;;;;27.52;15.25;;;;;;;1.27;84.33;98324.28;5043458;28;20106;-72
2021/03/11 01:25:57;;;;;;;30.27;16.67;;;;;;;1.25;84.41;98318.31;5047749;28;20080;-72
2021/03/11 01:28:22;;;;;;;;;;;;;;;1.19;84.29;98305.75;5032811;28;20029;-72
2021/03/11 01:30:48;;;;;;;31.15;16.20;;;;;;;1.02;85.16;98306.34;5032361;28;20270;-72
2021/03/11 01:33:13;;;;;;;31.92;18.70;;;;;;;1.07;84.93;98314.56;5034506;28;20029;-72
2021/03/11 01:35:39;;;;;;;;;;;;;;;1.24;84.47;98314.78;5052617;28;20496;-73
2021/03/11 01:38:05;;;;;;;29.75;15.85;;;;;;;1.06;85.05;98310.25;5051983;28;20028;-73
2021/03/11 01:40:33;;;;;;;30.17;17.17;;;;;;;1.11;85.06;98309.56;5052127;28;20040;-72
2021/03/11 01:42:58;;;;;;;28.58;16.38;;;;;;;1.24;84.38;98317.47;5051989;28;20477;-73
2021/03/11 01:45:23;;;;;;;26.27;14.73;;;;;;;1.20;84.69;98315.44;5051988;28;20025;-72
2021/03/11 01:47:49;;;;;;;;;;;;;;;1.23;84.86;98315.81;5050916;28;20473;-72
2021/03/11 01:50:14;;;;;;;26.90;15.43;;;;;;;1.20;84.89;98313.59;5048514;28;19940;-73
2021/03/11 01:52:41;;;;;;;30.40;18.48;;;;;;;1.25;85.11;98311.06;5032045;28;20017;-73
2021/03/11 01:55:07;;;;;;;29.95;16.38;;;;;;;1.39;84.56;98311.69;5031881;28;20719;-72
2021/03/11 01:57:33;;;;;;;31.85;16.63;;;;;;;1.32;84.58;98306.38;5034000;28;20443;-73
2021/03/11 02:00:01;;;;;;;26.15;15.98;;;;;;;1.23;84.94;98301.53;5044164;28;20033;-72
2021/03/11 02:02:26;;;;;;;26.52;15.60;;;;;;;1.33;84.70;98299.13;5046645;28;20029;-73
2021/03/11 02:04:52;;;;;;;29.23;16.90;;;;;;;1.34;84.40;98307.00;5042296;28;20528;-74
2021/03/11 02:07:17;;;;;;;;;;;;;;;1.34;84.47;98298.06;5053011;28;20032;-73
2021/03/11 02:09:42;;;;;;;27.15;16.83;;;;;;;1.26;84.47;98288.44;5048368;28;19912;-73
2021/03/11 02:12:28;;;;;;;32.05;16.70;;;;;;;1.21;84.73;98287.47;5031793;28;20497;-73
2021/03/11 02:15:08;;;;;;;26.58;15.95;;;;;;;1.19;84.61;98281.50;5031735;28;20029;-73
2021/03/11 02:17:54;;;;;;;30.52;17.63;;;;;;;1.13;84.82;98268.94;5030998;28;20025;-73
2021/03/11 02:20:44;;;;;;;28.30;16.40;;;;;;;1.16;85.03;98269.28;5031535;28;20075;-74
2021/03/11 02:23:15;;;;;;;29.52;16.42;;;;;;;1.02;85.22;98273.22;5031470;28;20067;-73
2021/03/11 02:25:48;;;;;;;31.45;17.27;;;;;;;0.96;85.57;98258.78;5031463;28;20071;-72
2021/03/11 02:28:53;;;;;;;34.80;17.63;;;;;;;1.06;85.42;98264.47;5034947;28;20113;-73
2021/03/11 02:31:20;;;;;;;30.85;17.13;;;;;;;0.87;85.99;98268.22;5030270;28;20042;-72
2021/03/11 02:33:48;;;;;;;34.50;16.67;;;;;;;0.93;85.79;98264.63;5041614;28;20037;-72
2021/03/11 02:36:14;;;;;;;32.28;16.50;;;;;;;1.03;85.41;98266.78;5050841;28;20101;-72
2021/03/11 02:38:41;;;;;;;27.42;17.35;;;;;;;0.98;85.64;98256.69;5050496;28;20390;-72
2021/03/11 02:41:07;;;;;;;30.88;16.38;;;;;;;1.08;85.41;98256.97;5050651;28;20094;-73
2021/03/11 02:43:33;;;;;;;26.13;15.38;;;;;;;1.17;84.89;98251.25;5050234;28;20477;-73
2021/03/11 02:45:59;;;;;;;34.55;16.17;;;;;;;1.13;85.01;98250.09;5039639;28;20017;-73
2021/03/11 02:48:26;;;;;;;24.45;16.85;;;;;;;1.12;85.01;98251.13;5030745;28;20025;-72
2021/03/11 02:50:53;;;;;;;26.42;16.45;;;;;;;1.19;84.69;98246.50;5030718;28;20036;-73
2021/03/11 02:53:20;;;;;;;27.08;16.27;;;;;;;1.17;84.86;98248.56;5030914;28;20026;-72
2021/03/11 02:55:47;;;;;;;26.30;16.05;;;;;;;1.21;84.75;98241.69;5030614;28;20534;-72
2021/03/11 02:58:13;;;;;;;32.05;17.83;;;;;;;1.13;85.02;98244.72;5030568;28;20118;-73
2021/03/11 03:00:41;;;;;;;25.48;16.80;;;;;;;1.15;85.10;98229.94;5030554;28;20034;-73
2021/03/11 03:03:09;;;;;;;31.60;18.13;;;;;;;1.06;85.08;98234.84;5030761;28;20044;-73
2021/03/11 03:05:36;;;;;;;26.52;17.33;;;;;;;0.99;85.75;98231.41;5039462;28;20071;-73
2021/03/11 03:08:04;;;;;;;31.75;19.60;;;;;;;0.94;86.60;98236.63;5048089;28;20473;-73
2021/03/11 03:10:31;;;;;;;29.73;18.35;;;;;;;0.94;86.46;98233.94;5030414;28;20896;-73
2021/03/11 03:12:59;;;;;;;31.40;18.95;;;;;;;0.83;86.80;98237.41;5030416;28;20063;-73
2021/03/11 03:15:25;;;;;;;32.53;19.08;;;;;;;0.81;86.96;98236.84;5047675;28;20035;-73
2021/03/11 03:17:52;;;;;;;32.53;19.92;;;;;;;0.98;86.38;98245.91;5048702;28;20028;-72
2021/03/11 03:20:20;;;;;;;33.72;19.27;;;;;;;1.04;85.66;98241.47;5050317;28;20094;-73
2021/03/11 03:22:48;;;;;;;28.65;17.13;;;;;;;1.06;85.93;98247.47;5039282;28;20116;-72
2021/03/11 03:25:14;;;;;;;27.90;17.92;;;;;;;1.06;85.72;98236.72;5049607;28;20435;-73
2021/03/11 03:27:41;;;;;;;29.75;17.60;;;;;;;1.05;85.40;98235.88;5050021;28;20036;-73
2021/03/11 03:30:17;;;;;;;24.98;15.73;;;;;;;0.90;85.79;98237.34;5048821;28;20045;-73
2021/03/11 03:32:43;;;;;;;;;;;;;;;0.84;86.16;98247.16;5050998;28;20033;-72
2021/03/11 03:35:10;;;;;;;28.55;17.17;;;;;;;0.84;86.33;98239.06;5050264;28;19923;-75
2021/03/11 03:37:36;;;;;;;25.92;16.67;;;;;;;0.91;85.81;98244.34;5049936;28;20053;-72
2021/03/11 03:40:05;;;;;;;33.83;19.58;;;;;;;0.76;86.21;98247.44;5049981;28;20454;-73
2021/03/11 03:42:35;;;;;;;27.33;17.45;;;;;;;0.75;86.74;98250.38;5039297;28;20033;-72
2021/03/11 03:45:03;;;;;;;29.50;17.13;;;;;;;0.78;86.40;98255.31;5030081;28;20061;-73
2021/03/11 03:47:29;;;;;;;30.33;17.58;;;;;;;0.70;86.50;98251.03;5029916;28;20048;-72
2021/03/11 03:49:56;;;;;;;32.22;18.85;;;;;;;0.60;86.96;98242.66;5029876;28;20375;-73
2021/03/11 03:52:23;;;;;;;29.85;16.95;;;;;;;0.56;87.25;98241.47;5029942;28;20025;-72
2021/03/11 03:54:49;;;;;;;30.58;17.48;;;;;;;0.57;87.57;98240.41;5029822;28;20017;-72
2021/03/11 03:57:20;;;;;;;30.00;16.98;;;;;;;0.56;87.33;98248.72;5029586;28;20099;-73
2021/03/11 03:59:48;;;;;;;30.00;18.90;;;;;;;0.63;87.38;98246.78;5030073;28;20041;-72
2021/03/11 04:02:17;;;;;;;29.48;16.92;;;;;;;0.41;87.57;98244.53;5047150;28;20033;-72
2021/03/11 04:04:47;;;;;;;24.35;15.48;;;;;;;0.40;87.80;98248.28;5049566;28;20036;-73
2021/03/11 04:07:17;;;;;;;34.47;18.35;;;;;;;0.37;87.90;98254.09;5049601;28;20037;-72
2021/03/11 04:09:44;;;;;;;31.50;18.42;;;;;;;0.31;87.97;98256.84;5044873;28;20025;-73
2021/03/11 04:12:11;;;;;;;34.83;18.73;;;;;;;0.23;88.21;98254.44;5029754;28;20113;-73
2021/03/11 04:14:37;;;;;;;31.60;18.13;;;;;;;0.24;88.47;98254.22;5029661;28;20029;-72
2021/03/11 04:17:04;;;;;;;29.70;18.08;;;;;;;0.20;88.24;98244.13;5028470;28;20040;-72
2021/03/11 04:19:31;;;;;;;30.80;18.83;;;;;;;0.25;88.31;98249.69;5029471;28;20854;-73
2021/03/11 04:21:59;;;;;;;33.45;19.20;;;;;;;0.26;88.23;98257.50;5029678;28;20453;-72
2021/03/11 04:24:25;;;;;;;31.42;16.95;;;;;;;0.04;88.77;98250.91;5030734;28;20029;-75
2021/03/11 04:26:51;;;;;;;30.48;18.45;;;;;;;0.02;89.23;98252.16;5030331;28;20038;-73
2021/03/11 04:29:16;;;;;;;;;;;;;;;0.07;89.09;98242.38;5036628;28;20111;-73
2021/03/11 04:31:42;;;;;;;31.48;16.63;;;;;;;0.00;89.43;98244.34;5048128;28;19920;-72
2021/03/11 04:34:07;;;;;;;;;;;;;;;0.17;88.79;98252.63;5050030;28;20024;-73
2021/03/11 04:36:34;;;;;;;29.33;16.48;;;;;;;0.19;88.40;98243.28;5048224;28;20584;-72
2021/03/11 04:39:00;;;;;;;29.70;17.58;;;;;;;0.23;88.26;98236.44;5048181;28;20592;-72
2021/03/11 04:41:26;;;;;;;31.77;18.50;;;;;;;0.12;88.95;98233.66;5051858;28;20090;-73
2021/03/11 04:43:56;;;;;;;34.83;18.35;;;;;;;0.02;89.30;98244.09;5051814;28;20021;-72
2021/03/11 04:46:23;;;;;;;33.65;19.98;;;;;;;0.10;89.07;98235.75;5052956;28;20033;-73
2021/03/11 04:48:49;;;;;;;36.00;20.38;;;;;;;0.18;88.94;98230.09;5052927;28;20033;-73
2021/03/11 04:51:16;;;;;;;28.55;18.67;;;;;;;0.04;89.30;98231.25;5053007;28;20063;-73
2021/03/11 04:53:42;;;;;;;28.98;17.77;;;;;;;-0.06;89.69;98232.56;5052971;28;20029;-72
2021/03/11 04:56:10;;;;;;;30.85;19.48;;;;;;;0.06;89.52;98229.19;5053288;28;20500;-72
2021/03/11 04:58:37;;;;;;;28.27;18.45;;;;;;;0.27;88.26;98234.13;5053866;28;20021;-73
2021/03/11 05:01:10;;;;;;;34.55;19.38;;;;;;;0.13;88.69;98229.91;5053282;28;20470;-73
2021/03/11 05:03:37;;;;;;;32.05;17.30;;;;;;;0.05;89.20;98246.34;5053783;28;20029;-73
2021/03/11 05:06:05;;;;;;;32.03;16.85;;;;;;;0.07;88.80;98230.81;5053007;28;20505;-73
2021/03/11 05:08:31;;;;;;;29.58;19.05;;;;;;;0.05;89.31;98230.22;5053074;28;20033;-73
2021/03/11 05:10:56;;;;;;;28.00;17.90;;;;;;;0.04;89.42;98225.88;5051698;28;20595;-73
2021/03/11 05:13:21;;;;;;;32.80;18.48;;;;;;;0.35;88.28;98231.97;5052615;28;20047;-72
2021/03/11 05:15:47;;;;;;;32.92;17.48;;;;;;;0.44;87.43;98227.94;5052512;28;20039;-72
2021/03/11 05:18:12;;;;;;;;;;;;;;;0.34;87.73;98235.72;5051834;28;20444;-73
2021/03/11 05:20:37;;;;;;;31.38;16.45;;;;;;;0.40;87.94;98234.00;5051391;28;19963;-73
2021/03/11 05:23:03;;;;;;;;;;;;;;;0.49;87.48;98227.28;5053042;28;20180;-73
2021/03/11 05:25:28;;;;;;;30.23;18.38;;;;;;;0.54;87.01;98238.16;5053734;28;19916;-72
2021/03/11 05:27:53;;;;;;;;;;;;;;;0.68;86.53;98239.69;5055023;28;20469;-73
2021/03/11 05:30:19;;;;;;;35.55;18.77;;;;;;;0.67;86.18;98246.09;5054363;28;21345;-73
2021/03/11 05:32:44;;;;;;;31.40;19.05;;;;;;;0.54;86.80;98239.00;5054774;28;20021;-73
2021/03/11 05:35:10;;;;;;;39.20;18.73;;;;;;;0.57;86.78;98237.72;5054313;28;20478;-74
2021/03/11 05:37:37;;;;;;;31.60;18.85;;;;;;;0.59;86.62;98237.50;5048651;28;20040;-73
2021/03/11 05:40:07;;;;;;;29.95;16.15;;;;;;;0.55;86.92;98234.44;5051459;28;20029;-72
2021/03/11 05:42:34;;;;;;;29.98;18.65;;;;;;;0.59;86.28;98237.50;5071490;28;20485;-74
2021/03/11 05:45:03;;;;;;;28.70;16.52;;;;;;;0.64;86.37;98241.16;5049515;28;20476;-71
2021/03/11 05:47:30;;;;;;;31.88;19.02;;;;;;;0.65;86.39;98245.50;5050900;28;20028;-74
2021/03/11 05:49:59;;;;;;;33.47;17.95;;;;;;;0.79;86.13;98248.84;5050386;28;20016;-73
2021/03/11 05:52:24;;;;;;;28.98;18.20;;;;;;;1.05;85.55;98243.13;5047871;28;20032;-74
2021/03/11 05:54:50;;;;;;;31.75;19.67;;;;;;;1.02;85.53;98248.97;5050673;28;20466;-75
2021/03/11 05:57:15;;;;;;;;;;;;;;;0.96;86.24;98255.28;5049530;28;20028;-74
2021/03/11 05:59:41;;;;;;;41.03;20.17;;;;;;;0.93;86.24;98242.25;5050238;28;20288;-74
2021/03/11 06:02:07;;;;;;;;;;;;;;;0.87;86.77;98235.09;5051052;28;20466;-74
2021/03/11 06:04:36;;;;;;;28.52;17.13;;;;;;;0.72;87.56;98229.28;5051070;28;19913;-74
2021/03/11 06:07:04;;;;;;;36.42;19.77;;;;;;;0.69;88.24;98232.44;5050568;28;20477;-74
2021/03/11 06:09:33;;;;;;;34.50;19.35;;;;;;;0.84;87.69;98231.00;5045072;28;20028;-74
2021/03/11 06:12:00;;;;;;;30.80;19.88;;;;;;;0.92;87.50;98241.44;5050178;28;20021;-75
2021/03/11 06:14:26;;;;;;;32.92;18.58;;;;;;;0.88;87.48;98245.63;5049997;28;20766;-73
2021/03/11 06:17:00;;;;;;;32.13;20.05;;;;;;;1.01;87.40;98244.63;5050407;28;20021;-74
2021/03/11 06:19:25;;;;;;;35.58;21.35;;;;;;;1.13;86.92;98242.00;5046750;28;20017;-73
2021/03/11 06:21:52;;;;;;;33.70;19.08;;;;;;;1.37;85.38;98241.03;5049773;28;20135;-73
2021/03/11 06:24:19;;;;;;;32.97;20.55;;;;;;;1.33;85.21;98237.16;5044002;28;20074;-74
2021/03/11 06:26:44;;;;;;;34.60;21.35;;;;;;;1.23;85.86;98231.50;5038729;28;20057;-74
2021/03/11 06:29:10;;;;;;;30.13;18.95;;;;;;;1.23;85.82;98231.50;5048811;28;20084;-75
2021/03/11 06:31:37;;;;;;;33.63;19.15;;;;;;;1.45;85.33;98235.31;5049849;28;20029;-73
2021/03/11 06:34:20;;;;;;;34.85;21.08;;;;;;;1.45;85.15;98238.00;5049765;28;20381;-74
2021/03/11 06:36:46;;;;;;;33.40;20.15;;;;;;;1.86;83.72;98245.25;5046706;28;20044;-74
2021/03/11 06:39:31;;;;;;;34.08;20.10;;;;;;;1.78;83.62;98237.50;5047243;28;21544;-77
2021/03/11 06:41:57;;;;;;;34.17;18.35;;;;;;;1.88;82.93;98235.84;5054547;28;20035;-73
2021/03/11 06:44:40;;;;;;;37.50;19.58;;;;;;;1.76;82.88;98237.72;5053036;28;20025;-75
2021/03/11 06:47:17;;;;;;;35.33;20.27;;;;;;;1.60;83.84;98238.38;5051308;28;20055;-75
2021/03/11 06:49:54;;;;;;;31.80;20.60;;;;;;;1.49;84.23;98241.88;5050741;28;20025;-74
2021/03/11 06:52:20;;;;;;;33.40;19.35;;;;;;;1.51;84.30;98255.94;5044432;28;20060;-75
2021/03/11 06:54:51;;;;;;;32.20;21.10;;;;;;;1.48;84.78;98251.03;5037665;28;20128;-75
2021/03/11 06:57:33;;;;;;;31.92;19.45;;;;;;;1.48;84.38;98249.16;5032748;28;20112;-75
2021/03/11 07:00:01;;;;;;;32.97;21.15;;;;;;;1.58;84.48;98260.19;5031082;28;20029;-75
2021/03/11 07:02:28;;;;;;;33.03;19.67;;;;;;;1.78;83.43;98246.41;5034017;28;20078;-75
2021/03/11 07:04:56;;;;;;;32.10;18.63;;;;;;;1.80;82.80;98241.59;5050978;28;20021;-75
2021/03/11 07:07:23;;;;;;;29.20;19.13;;;;;;;1.92;82.46;98245.13;5048973;28;20056;-76
2021/03/11 07:09:53;;;;;;;29.45;18.00;;;;;;;2.21;81.44;98243.41;5040842;28;20454;-74
2021/03/11 07:12:18;;;;;;;32.05;19.95;;;;;;;2.20;81.27;98249.84;5043022;28;20463;-76
2021/03/11 07:14:49;;;;;;;32.13;18.58;;;;;;;2.17;81.06;98256.53;5049456;28;20108;-78
2021/03/11 07:17:19;;;;;;;35.30;20.23;;;;;;;2.34;80.38;98250.44;5044004;28;20043;-76
2021/03/11 07:20:11;;;;;;;30.92;19.23;;;;;;;2.61;79.38;98257.81;5048343;28;20040;-74
2021/03/11 07:22:37;;;;;;;35.90;19.17;;;;;;;2.88;78.10;98249.97;5047332;28;20040;-75
2021/03/11 07:25:04;;;;;;;35.70;19.50;;;;;;;3.18;76.69;98247.91;5048877;28;20486;-75
2021/03/11 07:27:40;;;;;;;32.60;19.10;;;;;;;3.14;76.72;98245.91;5048105;28;20131;-79
2021/03/11 07:30:08;;;;;;;30.95;21.60;;;;;;;3.35;75.91;98263.38;5049607;28;20079;-78
2021/03/11 07:32:35;;;;;;;28.67;18.75;;;;;;;3.38;75.42;98262.88;5049538;28;20037;-76
2021/03/11 07:35:02;;;;;;;30.77;19.80;;;;;;;3.72;74.72;98265.41;5049796;28;20028;-76
2021/03/11 07:37:28;;;;;;;29.50;17.38;;;;;;;3.51;74.79;98257.19;5048863;28;20045;-75
2021/03/11 07:39:58;;;;;;;31.45;19.25;;;;;;;3.63;75.38;98266.84;5048936;28;20179;-77
2021/03/11 07:42:24;;;;;;;30.08;18.67;;;;;;;4.09;73.97;98260.34;5047818;28;20048;-77
2021/03/11 07:44:50;;;;;;;26.13;17.55;;;;;;;3.82;73.86;98256.66;5044637;28;20045;-79
2021/03/11 07:47:17;;;;;;;30.52;17.73;;;;;;;3.59;74.38;98257.59;5031079;28;20026;-79
2021/03/11 07:49:43;;;;;;;31.90;19.85;;;;;;;3.52;74.78;98266.91;5030791;28;20124;-74
2021/03/11 07:52:09;;;;;;;29.65;19.15;;;;;;;3.76;74.68;98260.31;5031967;28;20072;-74
2021/03/11 07:54:35;;;;;;;26.35;17.83;;;;;;;4.22;73.31;98270.03;5030235;28;20030;-75
2021/03/11 07:57:01;;;;;;;28.13;18.98;;;;;;;4.03;74.33;98255.94;5030408;28;20494;-75
2021/03/11 07:59:27;;;;;;;32.85;19.65;;;;;;;3.57;75.38;98264.31;5029273;28;20082;-76
2021/03/11 08:02:00;;;;;;;28.33;18.63;;;;;;;3.58;75.67;98264.06;5030993;28;20434;-77
2021/03/11 08:04:28;;;;;;;40.50;22.42;;;;;;;3.70;75.51;98255.88;5039842;28;21620;-74
2021/03/11 08:07:18;;;;;;;39.00;20.67;;;;;;;3.88;74.74;98252.16;5045765;28;20741;-75
2021/03/11 08:09:44;;;;;;;31.88;21.77;;;;;;;4.02;74.05;98250.75;5043943;28;20386;-75
2021/03/11 08:12:38;;;;;;;44.85;21.23;;;;;;;4.48;72.77;98249.56;5048373;28;20108;-75
2021/03/11 08:15:23;;;;;;;39.42;19.80;;;;;;;4.37;72.83;98256.72;5051643;28;20025;-74
2021/03/11 08:17:49;;;;;;;36.47;20.42;;;;;;;4.78;72.44;98247.28;5045900;28;20485;-75
2021/03/11 08:20:37;;;;;;;39.28;19.00;;;;;;;4.56;72.20;98243.72;5046188;28;20033;-75
2021/03/11 08:23:03;;;;;;;34.17;20.90;;;;;;;4.52;72.37;98253.41;5033541;28;20029;-75
2021/03/11 08:25:32;;;;;;;26.92;17.80;;;;;;;4.56;71.60;98254.56;5051963;28;20025;-75
2021/03/11 08:27:57;;;;;;;29.95;18.02;;;;;;;4.54;71.74;98243.16;5041616;28;20490;-75
2021/03/11 08:30:38;;;;;;;33.33;18.90;;;;;;;4.54;71.40;98246.66;5033317;28;20037;-74
2021/03/11 08:33:07;;;;;;;30.30;18.27;;;;;;;4.65;71.27;98250.34;5034969;28;20029;-75
2021/03/11 08:35:33;;;;;;;42.83;23.92;;;;;;;4.68;71.38;98247.13;5053834;28;20025;-74
2021/03/11 08:38:02;;;;;;;40.30;24.17;;;;;;;4.93;71.60;98250.19;5052017;28;20398;-75
2021/03/11 08:40:39;;;;;;;40.55;24.67;;;;;;;4.99;71.33;98251.06;5052000;28;20375;-80
2021/03/11 08:43:04;;;;;;;36.75;20.13;;;;;;;5.65;69.15;98242.59;5041667;28;20021;-76
2021/03/11 08:45:36;;;;;;;34.20;21.35;;;;;;;6.26;66.39;98249.41;5034160;28;20470;-76
2021/03/11 08:48:22;;;;;;;36.17;21.60;;;;;;;6.72;64.39;98246.97;5033289;28;20025;-74
2021/03/11 08:50:50;;;;;;;33.73;20.27;;;;;;;6.85;64.58;98243.78;5033633;28;20064;-75
2021/03/11 08:53:37;;;;;;;33.90;20.50;;;;;;;6.35;64.98;98242.41;5033574;28;20059;-75
2021/03/11 08:56:22;;;;;;;;;;;;;;;6.88;63.64;98235.94;5034424;28;20644;-75
2021/03/11 08:58:52;;;;;;;29.23;19.88;;;;;;;7.21;62.74;98231.16;5037836;28;19942;-75
2021/03/11 09:01:49;;;;;;;30.63;20.40;;;;;;;7.73;60.69;98220.97;5056016;28;20024;-75
2021/03/11 09:04:17;;;;;;;30.52;18.70;;;;;;;8.08;59.14;98222.91;5062974;28;20462;-76
2021/03/11 09:06:57;;;;;;;30.33;18.90;;;;;;;7.61;60.26;98219.59;5048357;28;20033;-74
2021/03/11 09:09:45;;;;;;;28.08;17.08;;;;;;;7.33;60.29;98221.69;5044886;28;20061;-74
2021/03/11 09:12:27;;;;;;;26.65;16.58;;;;;;;7.75;58.91;98215.22;5036910;28;20037;-75
2021/03/11 09:14:54;;;;;;;33.38;19.52;;;;;;;7.24;61.37;98209.69;5044422;28;20029;-78
2021/03/11 09:17:22;;;;;;;29.33;19.45;;;;;;;7.16;61.29;98212.09;5052530;28;20401;-78
2021/03/11 09:20:00;;;;;;;30.52;18.42;;;;;;;7.37;61.37;98217.34;5046419;28;20523;-75
2021/03/11 09:22:30;;;;;;;32.75;18.85;;;;;;;7.23;61.04;98209.97;5053318;28;20400;-75
2021/03/11 09:25:00;;;;;;;31.75;19.85;;;;;;;7.49;60.01;98209.75;5052205;28;20025;-74
2021/03/11 09:27:28;;;;;;;23.70;17.80;;;;;;;7.83;59.36;98210.06;5049519;28;20035;-75
2021/03/11 09:29:58;;;;;;;29.05;17.40;;;;;;;7.52;60.23;98208.38;5050374;28;20087;-75
2021/03/11 09:32:28;;;;;;;30.50;18.42;;;;;;;7.44;60.21;98207.03;5052463;28;20036;-75
2021/03/11 09:34:54;;;;;;;27.58;18.65;;;;;;;7.12;61.24;98203.66;5052650;28;20474;-74
2021/03/11 09:38:02;;;;;;;27.55;18.35;;;;;;;7.38;61.04;98202.66;5051790;28;20045;-79
2021/03/11 09:40:38;;;;;;;25.75;15.77;;;;;;;7.86;59.99;98189.66;5046594;28;20095;-74
2021/03/11 09:43:05;;;;;;;24.85;16.67;;;;;;;8.07;58.22;98192.13;5034630;28;20029;-73
2021/03/11 09:45:36;;;;;;;24.27;15.40;;;;;;;8.90;55.70;98186.22;5049298;28;20417;-75
2021/03/11 09:48:04;;;;;;;26.85;17.67;;;;;;;8.95;55.42;98183.50;5051101;28;20469;-74
2021/03/11 09:50:29;;;;;;;26.77;16.45;;;;;;;8.85;55.37;98184.34;5051690;28;20043;-75
2021/03/11 09:52:58;;;;;;;27.50;19.25;;;;;;;9.01;54.80;98193.28;5051252;28;20033;-75
2021/03/11 09:55:24;;;;;;;27.65;16.88;;;;;;;9.01;54.63;98193.28;5049791;28;20025;-75
2021/03/11 09:57:49;;;;;;;26.30;18.58;;;;;;;8.75;55.47;98187.09;5045471;28;20373;-73
2021/03/11 10:00:16;;;;;;;26.25;17.65;;;;;;;8.22;57.08;98168.66;5051750;28;20074;-74
2021/03/11 10:02:53;;;;;;;23.80;15.27;;;;;;;8.46;56.75;98165.09;5051578;28;20060;-75
2021/03/11 10:05:19;;;;;;;21.60;14.73;;;;;;;8.79;55.32;98163.63;5051890;28;20029;-74
2021/03/11 10:07:56;;;;;;;31.95;19.23;;;;;;;8.39;56.92;98155.59;5049931;28;20328;-76
2021/03/11 10:10:22;;;;;;;30.55;17.88;;;;;;;8.47;56.89;98142.19;5051630;28;20025;-74
2021/03/11 10:12:48;;;;;;;23.20;16.17;;;;;;;8.59;56.48;98147.34;5051328;28;20047;-75
2021/03/11 10:15:15;;;;;;;27.42;17.80;;;;;;;8.66;56.74;98142.41;5051669;28;20029;-75
2021/03/11 10:17:41;;;;;;;35.58;17.80;;;;;;;8.83;56.70;98137.44;5049029;28;20477;-75
2021/03/11 10:20:33;;;;;;;28.17;17.63;;;;;;;9.12;55.66;98134.81;5044389;28;20115;-74
2021/03/11 10:23:20;;;;;;;44.92;19.13;;;;;;;9.53;54.28;98136.22;5034198;28;20041;-74
2021/03/11 10:25:46;;;;;;;35.47;17.73;;;;;;;9.62;53.54;98134.50;5051142;28;20064;-75
2021/03/11 10:28:26;;;;;;;24.73;17.77;;;;;;;9.61;54.82;98146.53;5050872;28;20059;-77
2021/03/11 10:30:55;;;;;;;22.40;15.20;;;;;;;9.93;53.72;98147.94;5045989;28;20615;-74
2021/03/11 10:33:20;;;;;;;32.22;15.48;;;;;;;9.65;53.45;98128.47;5030833;28;20033;-75
2021/03/11 10:35:46;;;;;;;24.88;15.93;;;;;;;9.24;54.86;98129.84;5037032;28;20041;-76
2021/03/11 10:38:18;;;;;;;27.90;17.52;;;;;;;9.14;54.90;98129.91;5035880;28;20037;-75
2021/03/11 10:40:43;;;;;;;22.98;15.65;;;;;;;9.54;54.53;98126.94;5031210;28;20414;-74
2021/03/11 10:43:18;;;;;;;25.85;16.83;;;;;;;9.47;55.51;98125.59;5030898;28;20063;-74
2021/03/11 10:45:43;;;;;;;28.40;17.00;;;;;;;9.74;54.67;98119.69;5048838;28;20036;-75
2021/03/11 10:48:09;;;;;;;31.33;16.73;;;;;;;9.92;53.70;98133.44;5048861;28;20029;-75
2021/03/11 10:50:45;;;;;;;19.10;14.15;;;;;;;9.72;53.94;98119.13;5050866;28;20509;-73
2021/03/11 10:53:11;;;;;;;19.58;10.70;;;;;;;9.95;53.10;98116.47;5051495;28;20041;-75
2021/03/11 10:55:39;;;;;;;22.70;8.80;;;;;;;10.08;52.10;98117.72;5052167;28;20033;-74
2021/03/11 10:58:06;;;;;;;13.15;8.43;;;;;;;10.06;51.30;98109.81;5050282;28;20029;-76
2021/03/11 11:00:36;;;;;;;12.52;8.18;;;;;;;10.04;49.88;98113.94;5050718;28;20021;-75
2021/03/11 11:03:04;;;;;;;11.88;7.55;;;;;;;10.08;50.41;98109.53;5050339;28;20028;-75
2021/03/11 11:05:30;;;;;;;15.50;7.63;;;;;;;10.29;51.08;98110.97;5051121;28;20028;-75
2021/03/11 11:07:56;;;;;;;13.23;8.60;;;;;;;10.03;50.73;98115.03;5045552;28;20027;-75
2021/03/11 11:10:30;;;;;;;12.02;8.00;;;;;;;10.19;51.74;98106.44;5041735;28;20025;-75
2021/03/11 11:12:55;;;;;;;13.93;8.60;;;;;;;10.13;49.80;98096.66;5050812;28;20064;-76
2021/03/11 11:15:22;;;;;;;11.02;7.45;;;;;;;10.10;51.22;98091.72;5051353;28;20025;-74
2021/03/11 11:17:48;;;;;;;13.65;8.25;;;;;;;10.17;51.16;98102.38;5044725;28;20036;-75
2021/03/11 11:20:16;;;;;;;17.67;9.20;;;;;;;10.14;51.16;98098.28;5040729;28;20037;-75
2021/03/11 11:22:42;;;;;;;14.63;8.93;;;;;;;10.13;48.59;98098.53;5072948;28;20136;-75
2021/03/11 11:25:08;;;;;;;13.05;7.90;;;;;;;10.17;48.57;98094.16;5035795;28;20151;-75
2021/03/11 11:27:35;;;;;;;12.98;8.05;;;;;;;10.23;49.61;98090.28;5037842;28;20028;-75
2021/03/11 11:30:03;;;;;;;16.10;8.13;;;;;;;10.36;50.83;98095.06;5035084;28;20017;-75
2021/03/11 11:32:29;;;;;;;13.45;6.53;;;;;;;10.35;50.03;98065.25;5046901;28;20025;-75
2021/03/11 11:34:54;;;;;;;14.73;8.68;;;;;;;10.10;53.66;98064.41;5029853;28;20029;-75
2021/03/11 11:37:20;;;;;;;16.75;8.68;;;;;;;10.12;48.60;98059.44;5047688;28;20087;-76
2021/03/11 11:39:46;;;;;;;16.13;9.20;;;;;;;10.27;51.10;98074.09;5044315;28;20064;-73